Skip Navigation Links Skip Navigation Links

Current Weather

Igloolik Airport, Nunavut

For information only: do not use for flight planning or navigation.
Latest weather
Observation time Monday, September 25, 2017 5:00 PM EDT
Local time Monday, September 25, 2017 6:30 PM EDT
Flight conditions Marginal Visual Meteorological Conditions
Winds
Wind direction Northwest (320°)
Wind speed 21 mph
Visibility 15 mi.
Sky condition
Ceiling 1,100 ft. broken clouds
Cloud layer broken clouds 1,100 ft.
Cloud layer overcast 1,500 ft.
Temperature 28°F
Dewpoint 21°F
Altimeter 29.89 in.Hg
Derived measurements
Relative humidity 74%
Wind chill 15°F
Density altitude -1935 ft.
Sea-level pressure 29.91 in.Hg
METAR CYGT 252100Z 32018KT 15SM BKN011 OVC015 M02/M06 A2989 RMK SC5SC3 -1.6/-2.9/TR/LAST STFD OBS/NEXT 261000Z SLP130

Settings

Location code

InnerDrive.Weather 4.0.6144.1 Release CLR 4.0.30319.36366
Copyright ©2015 Inner Drive Technology. All rights reserved. Portions Copyright ©1986-2015 David Braverman.

Find weather

Site navigation


Skip Navigation Links

Place info

Page info

PayPal - The safer, easier way to pay online!

Return home.

Copyright ©2017 Inner Drive Technology. Purveyors of fine, hand-crafted computer software. Page printed 2017-09-25T22:30:09 UTC.